Time;durP1;ratioP1;P1;durP2;ratioP2;P2;SDS_P1;SDS_P2;PMS_P1;PMS_P2;Temp;Humidity;BMP_temperature;BMP_pressure;BME280_temperature;BME280_humidity;BME280_pressure;Samples;Min_cycle;Max_cycle;Signal;HPM_P1;HPM_P2
2024/04/05 00:00:17;;;;;;;2.78;1.33;;;13.20;99.90;;;;;;5076003;28;20016;-77
2024/04/05 00:02:46;;;;;;;7.45;1.42;;;13.20;99.90;;;;;;5093137;28;20038;-78
2024/04/05 00:05:12;;;;;;;4.78;1.55;;;13.20;99.90;;;;;;5093842;28;20506;-77
2024/04/05 00:07:39;;;;;;;6.32;1.73;;;13.20;99.90;;;;;;5075164;28;20020;-77
2024/04/05 00:10:06;;;;;;;3.35;1.33;;;13.30;99.90;;;;;;5093613;28;20016;-78
2024/04/05 00:12:31;;;;;;;2.92;1.00;;;13.30;99.90;;;;;;5075297;28;20024;-77
2024/04/05 00:14:57;;;;;;;3.47;1.23;;;13.30;99.90;;;;;;5075488;28;20020;-77
2024/04/05 00:17:23;;;;;;;4.28;2.03;;;13.30;99.90;;;;;;5075441;28;20035;-77
2024/04/05 00:19:48;;;;;;;5.40;1.48;;;13.40;99.90;;;;;;5074955;28;20070;-77
2024/04/05 00:22:14;;;;;;;4.28;1.40;;;13.30;99.90;;;;;;5075767;28;20028;-77
2024/04/05 00:24:40;;;;;;;3.45;1.27;;;13.40;99.90;;;;;;5075257;28;20024;-77
2024/04/05 00:27:05;;;;;;;4.03;1.20;;;13.40;99.90;;;;;;5075593;28;20031;-76
2024/04/05 00:29:31;;;;;;;3.03;1.30;;;13.50;99.90;;;;;;5074495;28;20024;-86
2024/04/05 00:31:56;;;;;;;4.40;1.10;;;13.50;99.90;;;;;;5075369;28;20115;-76
2024/04/05 00:34:22;;;;;;;3.08;1.30;;;13.50;99.90;;;;;;5075511;28;20069;-77
2024/04/05 00:36:47;;;;;;;3.28;1.35;;;13.50;99.90;;;;;;5093094;28;20459;-76
2024/04/05 00:39:13;;;;;;;3.13;1.02;;;13.50;99.90;;;;;;5078396;28;20024;-76
2024/04/05 00:41:38;;;;;;;3.58;1.02;;;13.50;99.90;;;;;;5097096;28;20034;-77
2024/04/05 00:44:04;;;;;;;2.90;0.90;;;13.50;99.90;;;;;;5097489;28;20453;-77
2024/04/05 00:46:31;;;;;;;8.68;1.63;;;13.50;99.90;;;;;;5079255;28;20028;-76
2024/04/05 00:48:57;;;;;;;5.70;1.05;;;13.60;99.90;;;;;;5079150;28;20020;-77
2024/04/05 00:51:23;;;;;;;5.45;1.02;;;13.60;99.90;;;;;;5097439;28;20084;-77
2024/04/05 00:53:49;;;;;;;6.82;1.48;;;13.60;99.90;;;;;;5097093;28;20020;-76
2024/04/05 00:56:15;;;;;;;5.90;1.10;;;13.60;99.90;;;;;;5097316;28;20026;-78
2024/04/05 00:58:41;;;;;;;3.90;1.10;;;13.60;99.90;;;;;;5078787;28;20142;-78
2024/04/05 01:01:07;;;;;;;1.85;0.70;;;13.60;99.90;;;;;;5079338;28;20103;-78
2024/04/05 01:03:33;;;;;;;3.53;0.95;;;13.70;99.90;;;;;;5097119;28;20028;-85
2024/04/05 01:05:59;;;;;;;1.67;0.93;;;13.70;99.90;;;;;;5097374;28;20028;-77
2024/04/05 01:08:25;;;;;;;2.55;0.88;;;13.70;99.90;;;;;;5097167;28;20024;-77
2024/04/05 01:10:50;;;;;;;3.55;0.85;;;13.70;99.90;;;;;;5096390;28;20024;-77
2024/04/05 01:13:16;;;;;;;3.83;1.55;;;13.80;99.90;;;;;;5097293;28;20024;-77
2024/04/05 01:15:42;;;;;;;2.33;0.93;;;13.80;99.90;;;;;;5078162;28;20024;-76
2024/04/05 01:18:09;;;;;;;7.82;1.17;;;13.80;99.90;;;;;;5078680;28;20043;-76
2024/04/05 01:20:36;;;;;;;2.53;0.85;;;13.80;99.90;;;;;;5078341;28;20027;-78
2024/04/05 01:23:07;;;;;;;6.05;0.82;;;13.80;99.90;;;;;;5096575;28;20016;-76
2024/04/05 01:25:34;;;;;;;3.53;1.00;;;13.70;99.90;;;;;;5078964;28;20353;-76
2024/04/05 01:28:01;;;;;;;5.55;0.93;;;13.70;99.90;;;;;;5078733;28;20524;-76
2024/04/05 01:30:27;;;;;;;5.05;0.90;;;13.70;99.90;;;;;;5078669;28;20364;-76
2024/04/05 01:32:56;;;;;;;11.88;1.20;;;13.70;99.90;;;;;;5078256;28;20024;-76
2024/04/05 01:35:22;;;;;;;3.85;1.45;;;13.70;99.90;;;;;;5096274;28;20117;-76
2024/04/05 01:37:48;;;;;;;3.85;0.85;;;13.70;99.90;;;;;;5077352;28;20445;-77
2024/04/05 01:40:14;;;;;;;5.70;1.08;;;13.70;99.90;;;;;;5078212;28;20023;-76
2024/04/05 01:42:39;;;;;;;4.43;1.40;;;13.60;99.90;;;;;;5077602;28;20024;-77
2024/04/05 01:45:05;;;;;;;3.13;1.00;;;13.60;99.90;;;;;;5077574;28;20472;-77
2024/04/05 01:47:31;;;;;;;3.35;0.90;;;13.50;99.90;;;;;;5078026;28;20333;-76
2024/04/05 01:49:58;;;;;;;4.47;1.30;;;13.40;99.90;;;;;;5059748;28;20532;-75
2024/04/05 01:52:23;;;;;;;4.68;1.85;;;13.40;99.90;;;;;;5078055;28;20060;-75
2024/04/05 01:54:49;;;;;;;2.25;0.90;;;13.40;99.90;;;;;;5077240;28;20051;-75
2024/04/05 01:57:15;;;;;;;2.10;0.90;;;13.30;99.90;;;;;;5095821;28;20099;-77
2024/04/05 01:59:49;;;;;;;4.78;1.05;;;13.30;99.90;;;;;;5077480;28;20047;-77
2024/04/05 02:02:14;;;;;;;6.38;1.70;;;13.20;99.90;;;;;;5077958;28;20028;-78
2024/04/05 02:04:40;;;;;;;2.75;0.93;;;13.10;99.90;;;;;;5077023;28;20077;-77
2024/04/05 02:07:06;;;;;;;2.35;0.77;;;13.10;99.90;;;;;;5077690;28;20026;-77
2024/04/05 02:09:31;;;;;;;4.30;1.35;;;13.10;99.90;;;;;;5077497;28;20031;-77
2024/04/05 02:11:59;;;;;;;5.90;1.13;;;13.10;99.90;;;;;;5077214;28;20035;-77
2024/04/05 02:14:25;;;;;;;5.72;0.93;;;13.00;99.90;;;;;;5077522;28;20053;-77
2024/04/05 02:16:51;;;;;;;4.93;1.20;;;12.90;99.90;;;;;;5077113;28;20093;-77
2024/04/05 02:19:17;;;;;;;3.33;1.20;;;12.80;99.90;;;;;;5077607;28;20449;-77
2024/04/05 02:21:42;;;;;;;3.42;1.00;;;12.80;99.90;;;;;;5076627;28;20354;-78
2024/04/05 02:24:08;;;;;;;2.05;1.10;;;12.80;99.90;;;;;;5077535;28;20111;-77
2024/04/05 02:26:33;;;;;;;2.63;0.90;;;12.70;99.90;;;;;;5095469;28;20031;-77
2024/04/05 02:28:59;;;;;;;6.43;0.95;;;12.70;99.90;;;;;;5094701;28;20028;-77
2024/04/05 02:31:24;;;;;;;6.75;1.00;;;12.60;99.90;;;;;;5095257;28;20027;-76
2024/04/05 02:33:50;;;;;;;3.60;1.02;;;12.60;99.90;;;;;;5094635;28;20020;-76
2024/04/05 02:36:16;;;;;;;3.67;1.92;;;12.60;99.90;;;;;;5095044;28;20457;-76
2024/04/05 02:38:41;;;;;;;3.83;1.10;;;12.50;99.90;;;;;;5094367;28;20035;-76
2024/04/05 02:41:07;;;;;;;3.15;1.20;;;12.60;99.90;;;;;;5094829;28;20127;-76
2024/04/05 02:43:33;;;;;;;2.90;1.00;;;12.50;99.90;;;;;;5076749;28;20016;-76
2024/04/05 02:45:59;;;;;;;3.13;1.40;;;12.60;99.90;;;;;;5094068;28;20052;-76
2024/04/05 02:48:25;;;;;;;4.20;1.00;;;12.60;99.90;;;;;;5094422;28;20028;-76
2024/04/05 02:50:51;;;;;;;2.90;1.00;;;12.50;99.90;;;;;;5094079;28;20111;-76
2024/04/05 02:53:16;;;;;;;2.63;1.02;;;12.60;99.90;;;;;;5076761;28;20023;-76
2024/04/05 02:55:42;;;;;;;3.22;1.13;;;12.50;99.90;;;;;;5076039;28;20403;-76
2024/04/05 02:58:09;;;;;;;3.22;0.85;;;12.50;99.90;;;;;;5076386;28;20028;-76
2024/04/05 03:00:36;;;;;;;5.50;1.00;;;12.50;99.90;;;;;;5094331;28;20020;-76
2024/04/05 03:03:02;;;;;;;2.15;1.00;;;12.40;99.90;;;;;;5075923;28;20020;-76
2024/04/05 03:05:28;;;;;;;3.45;1.02;;;12.40;99.90;;;;;;5076142;28;20471;-76
2024/04/05 03:07:54;;;;;;;3.35;1.10;;;12.40;99.90;;;;;;5093943;28;20024;-76
2024/04/05 03:10:19;;;;;;;2.63;1.33;;;12.40;99.90;;;;;;5076362;28;20016;-76
2024/04/05 03:12:45;;;;;;;3.00;1.00;;;12.50;99.90;;;;;;5075895;28;20110;-78
2024/04/05 03:15:10;;;;;;;4.90;1.20;;;12.50;99.90;;;;;;5075924;28;20472;-77
2024/04/05 03:17:36;;;;;;;5.93;1.10;;;12.50;99.90;;;;;;5094286;28;20032;-76
2024/04/05 03:20:02;;;;;;;2.28;1.00;;;12.50;99.90;;;;;;5075582;28;20036;-76
2024/04/05 03:22:27;;;;;;;5.05;1.13;;;12.50;99.90;;;;;;5076091;28;20024;-77
2024/04/05 03:24:53;;;;;;;5.10;1.38;;;12.50;99.90;;;;;;5075432;28;20046;-78
2024/04/05 03:27:19;;;;;;;9.10;1.92;;;12.50;99.90;;;;;;5076032;28;20020;-78
2024/04/05 03:29:44;;;;;;;7.05;1.40;;;12.60;99.90;;;;;;5093698;28;20099;-78
2024/04/05 03:32:10;;;;;;;5.63;1.20;;;12.70;99.90;;;;;;5075598;28;20105;-76
2024/04/05 03:34:36;;;;;;;4.25;1.30;;;12.80;99.90;;;;;;5075946;28;20024;-76
2024/04/05 03:37:01;;;;;;;6.22;0.93;;;12.90;99.90;;;;;;5075478;28;20024;-76
2024/04/05 03:39:27;;;;;;;2.85;1.02;;;12.90;99.90;;;;;;5093847;28;20338;-76
2024/04/05 03:41:53;;;;;;;6.60;1.00;;;12.90;99.90;;;;;;5093296;28;20529;-76
2024/04/05 03:44:18;;;;;;;1.95;0.88;;;13.00;99.90;;;;;;5075605;28;20086;-77
2024/04/05 03:46:45;;;;;;;4.43;1.08;;;13.00;99.90;;;;;;5093343;28;20020;-77
2024/04/05 03:49:11;;;;;;;2.97;0.80;;;13.00;99.90;;;;;;5075598;28;20034;-76
2024/04/05 03:51:36;;;;;;;7.13;1.13;;;13.00;99.90;;;;;;5075479;28;20032;-76
2024/04/05 03:54:03;;;;;;;4.70;1.25;;;13.00;99.90;;;;;;5075404;28;20611;-78
2024/04/05 03:56:29;;;;;;;3.28;1.20;;;13.10;99.90;;;;;;5075629;28;20047;-77
2024/04/05 03:58:54;;;;;;;6.18;1.15;;;13.10;99.90;;;;;;5075136;28;20384;-77
2024/04/05 04:01:20;;;;;;;4.35;1.10;;;13.10;99.90;;;;;;5075627;28;20027;-78
2024/04/05 04:03:45;;;;;;;15.38;1.45;;;13.10;99.90;;;;;;5093184;28;20024;-80
2024/04/05 04:06:11;;;;;;;2.40;1.08;;;13.10;99.90;;;;;;5075698;28;20481;-78
2024/04/05 04:08:37;;;;;;;3.50;1.20;;;12.90;99.90;;;;;;5075505;28;20020;-78
2024/04/05 04:11:04;;;;;;;2.80;1.17;;;12.80;99.90;;;;;;5092989;28;20446;-78
2024/04/05 04:13:30;;;;;;;1.77;0.85;;;12.70;99.90;;;;;;5092783;28;20050;-79
2024/04/05 04:15:56;;;;;;;1.55;1.30;;;12.60;99.90;;;;;;5093070;28;20028;-77
2024/04/05 04:18:22;;;;;;;3.70;1.52;;;12.60;99.90;;;;;;5093548;28;20507;-77
2024/04/05 04:20:49;;;;;;;7.03;1.60;;;12.50;99.90;;;;;;5092860;28;20032;-77
2024/04/05 04:23:14;;;;;;;3.90;0.90;;;12.40;99.90;;;;;;5075477;28;20020;-79
2024/04/05 04:25:40;;;;;;;4.60;1.08;;;12.40;99.90;;;;;;5075240;28;20077;-78
2024/04/05 04:28:09;;;;;;;4.10;1.33;;;12.40;99.90;;;;;;5074964;28;20060;-79
2024/04/05 04:30:34;;;;;;;3.05;1.25;;;12.30;99.90;;;;;;5075278;28;20449;-78
2024/04/05 04:33:01;;;;;;;3.78;1.08;;;12.30;99.90;;;;;;5074859;28;20028;-78
2024/04/05 04:35:26;;;;;;;3.70;1.95;;;12.20;99.90;;;;;;5092963;28;20043;-78
2024/04/05 04:37:55;;;;;;;1.55;1.30;;;12.10;99.90;;;;;;5092715;28;20479;-78
2024/04/05 04:40:20;;;;;;;2.10;1.25;;;12.10;99.90;;;;;;5075311;28;20031;-78
2024/04/05 04:42:46;;;;;;;3.40;1.20;;;12.00;99.90;;;;;;5074772;28;20016;-84
2024/04/05 04:45:12;;;;;;;4.60;1.15;;;12.00;99.90;;;;;;5074749;28;20472;-78
2024/04/05 04:47:38;;;;;;;2.50;1.17;;;11.90;99.90;;;;;;5092897;28;20028;-78
2024/04/05 04:50:05;;;;;;;2.17;1.17;;;11.80;99.90;;;;;;5092567;28;20093;-78
2024/04/05 04:52:31;;;;;;;3.40;1.38;;;11.80;99.90;;;;;;5093026;28;20032;-78
2024/04/05 04:54:57;;;;;;;1.92;1.02;;;11.80;99.90;;;;;;5074643;28;20020;-75
2024/04/05 04:57:23;;;;;;;2.95;1.25;;;11.70;99.90;;;;;;5075113;28;20356;-75
2024/04/05 04:59:50;;;;;;;4.03;1.35;;;11.70;99.90;;;;;;5074448;28;20027;-76
2024/04/05 05:02:15;;;;;;;4.57;1.50;;;11.70;99.90;;;;;;5092973;28;20055;-76
2024/04/05 05:04:41;;;;;;;4.63;1.20;;;11.70;99.90;;;;;;5075232;28;20051;-75
2024/04/05 05:07:06;;;;;;;3.10;1.20;;;11.70;99.90;;;;;;5074722;28;20195;-79
2024/04/05 05:09:32;;;;;;;3.28;1.10;;;11.70;99.90;;;;;;5075284;28;20052;-78
2024/04/05 05:11:58;;;;;;;5.20;1.15;;;11.70;99.90;;;;;;5074393;28;20539;-80
2024/04/05 05:14:25;;;;;;;1.83;1.08;;;11.70;99.90;;;;;;5075168;28;20369;-76
2024/04/05 05:16:51;;;;;;;3.78;1.33;;;11.70;99.90;;;;;;5074489;28;20453;-78
2024/04/05 05:19:17;;;;;;;3.42;1.15;;;11.80;99.90;;;;;;5074675;28;20028;-79
2024/04/05 05:21:43;;;;;;;4.25;1.38;;;11.80;99.90;;;;;;5092285;28;20050;-80
2024/04/05 05:24:09;;;;;;;4.57;1.52;;;11.80;99.90;;;;;;5074403;28;20456;-79
2024/04/05 05:26:34;;;;;;;2.47;1.00;;;11.80;99.90;;;;;;5078040;28;20020;-78
2024/04/05 05:29:00;;;;;;;3.20;1.70;;;11.90;99.90;;;;;;5078394;28;20024;-79
2024/04/05 05:31:26;;;;;;;2.45;1.27;;;11.90;99.90;;;;;;5077720;28;20055;-78
2024/04/05 05:33:51;;;;;;;6.28;1.65;;;11.90;99.90;;;;;;5079558;28;20073;-78
2024/04/05 05:36:17;;;;;;;3.88;1.23;;;11.90;99.90;;;;;;5079186;28;20102;-79
2024/04/05 05:38:42;;;;;;;3.13;1.10;;;12.00;99.90;;;;;;5096072;28;20121;-77
2024/04/05 05:41:08;;;;;;;3.15;1.20;;;12.00;99.90;;;;;;5077718;28;20422;-79
2024/04/05 05:43:34;;;;;;;2.83;1.48;;;12.00;99.90;;;;;;5096252;28;20020;-78
2024/04/05 05:46:00;;;;;;;3.40;1.30;;;12.00;99.90;;;;;;5077998;28;20044;-79
2024/04/05 05:48:25;;;;;;;5.60;1.45;;;12.00;99.90;;;;;;5078126;28;20047;-75
2024/04/05 05:50:51;;;;;;;4.85;1.33;;;12.00;99.90;;;;;;5095580;28;20031;-76
2024/04/05 05:53:17;;;;;;;3.25;0.90;;;12.00;99.90;;;;;;5078152;28;20036;-79
2024/04/05 05:55:48;;;;;;;2.58;0.90;;;12.00;99.90;;;;;;5078320;28;20052;-79
2024/04/05 05:58:14;;;;;;;2.47;1.17;;;12.00;99.90;;;;;;5095831;28;20028;-79
2024/04/05 06:00:40;;;;;;;4.88;1.60;;;12.00;99.90;;;;;;5078513;28;20027;-80
2024/04/05 06:03:07;;;;;;;2.13;1.10;;;12.10;99.90;;;;;;5077721;28;20043;-79
2024/04/05 06:05:33;;;;;;;4.18;1.30;;;12.00;99.90;;;;;;5078160;28;20023;-78
2024/04/05 06:07:58;;;;;;;4.18;1.50;;;12.00;99.90;;;;;;5095854;28;20020;-80
2024/04/05 06:10:25;;;;;;;4.88;1.23;;;12.00;99.90;;;;;;5078481;28;20020;-79
2024/04/05 06:12:50;;;;;;;4.95;1.15;;;12.10;99.90;;;;;;5078567;28;20031;-80
2024/04/05 06:15:16;;;;;;;3.88;1.10;;;12.10;99.90;;;;;;5096489;28;20017;-79
2024/04/05 06:17:46;;;;;;;3.45;1.05;;;12.20;99.90;;;;;;5096386;28;20056;-79
2024/04/05 06:20:12;;;;;;;3.22;1.08;;;12.40;99.90;;;;;;5077779;28;20028;-79
2024/04/05 06:22:38;;;;;;;3.03;1.05;;;12.40;99.90;;;;;;5078121;28;20107;-79
2024/04/05 06:25:04;;;;;;;2.17;1.00;;;12.50;99.90;;;;;;5095569;28;20020;-79
2024/04/05 06:27:30;;;;;;;4.43;1.05;;;12.60;99.90;;;;;;5096100;28;20031;-79
2024/04/05 06:29:56;;;;;;;3.88;0.95;;;12.70;99.90;;;;;;5077378;28;20465;-79
2024/04/05 06:32:23;;;;;;;2.53;0.95;;;12.70;99.90;;;;;;5095977;28;20016;-79
2024/04/05 06:34:50;;;;;;;4.78;1.52;;;12.80;99.90;;;;;;5077823;28;20028;-79
2024/04/05 06:37:15;;;;;;;2.15;1.10;;;12.90;99.90;;;;;;5095043;28;20012;-80
2024/04/05 06:39:41;;;;;;;5.38;0.90;;;12.90;99.90;;;;;;5077839;28;20388;-80
2024/04/05 06:42:10;;;;;;;3.75;1.15;;;13.00;99.90;;;;;;5077436;28;20031;-80
2024/04/05 06:44:39;;;;;;;1.85;1.00;;;13.10;99.90;;;;;;5077438;28;20407;-79
2024/04/05 06:47:09;;;;;;;4.75;1.08;;;13.10;99.90;;;;;;5076621;28;20027;-79
2024/04/05 06:49:37;;;;;;;5.13;1.15;;;13.20;99.90;;;;;;5095726;28;20024;-79
2024/04/05 06:52:04;;;;;;;4.25;1.20;;;13.20;99.90;;;;;;5076949;28;20050;-79
2024/04/05 06:54:31;;;;;;;2.95;1.25;;;13.20;99.90;;;;;;5095622;28;20055;-79
2024/04/05 06:56:57;;;;;;;3.70;1.67;;;13.30;99.90;;;;;;5077396;28;20073;-80
2024/04/05 06:59:22;;;;;;;4.28;1.25;;;13.30;99.90;;;;;;5077400;28;20028;-80
2024/04/05 07:01:53;;;;;;;4.07;1.27;;;13.30;99.90;;;;;;5095447;28;20511;-79
2024/04/05 07:04:26;;;;;;;6.60;1.13;;;13.40;99.90;;;;;;5077472;28;20237;-79
2024/04/05 07:06:55;;;;;;;2.65;0.95;;;13.40;99.90;;;;;;5077349;28;20115;-79
2024/04/05 07:09:22;;;;;;;5.38;1.10;;;13.50;99.90;;;;;;5095552;28;20111;-79
2024/04/05 07:11:51;;;;;;;3.92;1.10;;;13.60;99.90;;;;;;5076850;28;20061;-79
2024/04/05 07:14:17;;;;;;;4.32;1.10;;;13.60;99.90;;;;;;5094693;28;20020;-80
2024/04/05 07:16:43;;;;;;;4.65;1.15;;;13.70;99.90;;;;;;5076946;28;20032;-79
2024/04/05 07:19:10;;;;;;;5.00;0.95;;;13.80;99.90;;;;;;5076518;28;20118;-80
2024/04/05 07:21:35;;;;;;;7.28;0.80;;;13.80;99.90;;;;;;5077115;28;20031;-79
2024/04/05 07:24:01;;;;;;;2.55;1.00;;;13.90;99.90;;;;;;5076498;28;20016;-80
2024/04/05 07:26:27;;;;;;;4.40;1.05;;;13.90;99.90;;;;;;5077024;28;20020;-80
2024/04/05 07:28:53;;;;;;;4.22;0.90;;;14.00;99.90;;;;;;5077042;28;20476;-79
2024/04/05 07:31:20;;;;;;;2.92;0.80;;;14.00;99.90;;;;;;5094311;28;20108;-80
2024/04/05 07:33:45;;;;;;;5.68;1.10;;;14.00;99.90;;;;;;5094669;28;20019;-79
2024/04/05 07:36:11;;;;;;;4.20;1.00;;;14.10;99.90;;;;;;5076090;28;20016;-80
2024/04/05 07:38:36;;;;;;;3.53;1.38;;;14.10;99.90;;;;;;5076922;28;20059;-80
2024/04/05 07:41:05;;;;;;;3.65;0.95;;;14.10;99.90;;;;;;5076306;28;20377;-80
2024/04/05 07:43:31;;;;;;;1.50;0.95;;;14.20;99.90;;;;;;5077120;28;20522;-80
2024/04/05 07:45:57;;;;;;;2.03;1.17;;;14.20;99.90;;;;;;5076293;28;20052;-83
2024/04/05 07:48:23;;;;;;;3.15;1.20;;;14.30;99.90;;;;;;5075919;28;20020;-80
2024/04/05 07:50:48;;;;;;;2.65;1.20;;;14.40;99.90;;;;;;5076904;28;20016;-80
2024/04/05 07:53:14;;;;;;;2.85;0.90;;;14.50;99.90;;;;;;5076569;28;20480;-81
2024/04/05 07:55:40;;;;;;;5.65;0.85;;;14.60;99.90;;;;;;5076723;28;20031;-80
2024/04/05 07:58:05;;;;;;;3.03;0.90;;;14.60;99.90;;;;;;5076201;28;20027;-80
2024/04/05 08:00:31;;;;;;;3.72;1.08;;;14.50;99.90;;;;;;5076745;28;20020;-80
2024/04/05 08:02:57;;;;;;;2.75;0.75;;;14.50;99.90;;;;;;5077078;28;20024;-80
2024/04/05 08:05:23;;;;;;;1.42;1.10;;;14.50;99.90;;;;;;5094836;28;20031;-81
2024/04/05 08:07:48;;;;;;;3.90;1.00;;;14.50;99.90;;;;;;5094681;28;20020;-81
2024/04/05 08:10:14;;;;;;;2.47;1.00;;;14.50;99.90;;;;;;5076305;28;20074;-81
2024/04/05 08:12:40;;;;;;;1.63;0.70;;;14.60;99.90;;;;;;5076936;28;20024;-80
2024/04/05 08:15:11;;;;;;;2.20;0.82;;;14.60;99.90;;;;;;5075904;28;20063;-80
2024/04/05 08:17:37;;;;;;;5.25;1.10;;;14.60;99.90;;;;;;5076624;28;20031;-80
2024/04/05 08:20:03;;;;;;;9.77;2.25;;;14.70;99.90;;;;;;5075650;28;20063;-80
2024/04/05 08:22:28;;;;;;;2.88;1.27;;;14.70;99.90;;;;;;5076280;28;20028;-80
2024/04/05 08:24:57;;;;;;;5.50;1.10;;;14.70;99.90;;;;;;5076574;28;20511;-80
2024/04/05 08:27:23;;;;;;;3.60;0.88;;;14.70;99.90;;;;;;5075706;28;20020;-80
2024/04/05 08:29:48;;;;;;;3.03;0.77;;;14.80;99.90;;;;;;5076251;28;20035;-80
2024/04/05 08:32:14;;;;;;;3.20;0.70;;;14.80;99.90;;;;;;5075806;28;20020;-80
2024/04/05 08:34:42;;;;;;;1.95;0.80;;;14.90;99.90;;;;;;5076347;28;20020;-79
2024/04/05 08:37:08;;;;;;;3.92;0.98;;;14.90;99.90;;;;;;5075834;28;20020;-80
2024/04/05 08:39:34;;;;;;;4.65;0.90;;;14.90;99.90;;;;;;5075904;28;20031;-80
2024/04/05 08:42:12;;;;;;;3.30;0.80;;;15.00;99.90;;;;;;5076010;28;20028;-92
2024/04/05 08:44:49;;;;;;;3.55;0.95;;;15.00;99.90;;;;;;5093657;28;20465;-80
2024/04/05 08:47:16;;;;;;;16.58;1.73;;;15.00;99.90;;;;;;5075811;28;20073;-80
2024/04/05 08:49:44;;;;;;;4.57;0.73;;;15.10;99.90;;;;;;5076104;28;20048;-80
2024/04/05 08:52:10;;;;;;;2.60;0.70;;;15.20;99.90;;;;;;5075939;28;20039;-80
2024/04/05 08:54:36;;;;;;;3.72;0.98;;;15.20;99.90;;;;;;5075675;28;20122;-80
2024/04/05 08:57:03;;;;;;;2.92;0.82;;;15.20;99.90;;;;;;5093802;28;20062;-81
2024/04/05 08:59:29;;;;;;;4.93;0.80;;;15.20;99.90;;;;;;5077692;28;20453;-80
2024/04/05 09:01:59;;;;;;;3.03;0.68;;;15.30;99.90;;;;;;5079787;28;20055;-79
2024/04/05 09:04:28;;;;;;;1.48;0.65;;;15.30;99.90;;;;;;5079069;28;20024;-80
2024/04/05 09:06:54;;;;;;;1.13;0.50;;;15.30;99.90;;;;;;5079846;28;20016;-80
2024/04/05 09:09:29;;;;;;;3.00;0.80;;;15.30;99.90;;;;;;5079090;28;20083;-81
2024/04/05 09:12:09;;;;;;;2.53;0.80;;;15.40;99.90;;;;;;5097399;28;20016;-79
2024/04/05 09:14:36;;;;;;;1.85;0.60;;;15.50;99.90;;;;;;5079736;28;20055;-79
2024/04/05 09:17:03;;;;;;;1.15;0.60;;;15.60;99.90;;;;;;5079097;28;20036;-87
2024/04/05 09:19:30;;;;;;;1.05;0.70;;;15.70;99.90;;;;;;5079522;28;20043;-79
2024/04/05 09:21:57;;;;;;;4.65;0.95;;;15.80;99.90;;;;;;5097317;28;20149;-79
2024/04/05 09:24:22;;;;;;;1.88;0.60;;;16.00;99.90;;;;;;5097071;28;20036;-79
2024/04/05 09:27:03;;;;;;;2.10;0.70;;;16.10;99.90;;;;;;5099296;28;20028;-79
2024/04/05 09:29:29;;;;;;;4.03;0.63;;;16.30;99.90;;;;;;5079917;28;20453;-79
2024/04/05 09:31:54;;;;;;;4.10;0.95;;;16.50;99.90;;;;;;5097989;28;20020;-79
2024/04/05 09:34:25;;;;;;;2.00;0.70;;;16.70;99.90;;;;;;5080624;28;20062;-80
2024/04/05 09:36:51;;;;;;;2.28;0.60;;;16.70;99.90;;;;;;5099112;28;20058;-80
2024/04/05 09:39:21;;;;;;;1.58;0.60;;;16.70;99.90;;;;;;5079957;28;20020;-80
2024/04/05 09:41:51;;;;;;;1.92;0.77;;;16.80;99.90;;;;;;5097949;28;20024;-80
2024/04/05 09:44:17;;;;;;;5.87;0.80;;;16.90;99.90;;;;;;5097027;28;20101;-80
2024/04/05 09:46:44;;;;;;;3.13;0.80;;;17.00;99.90;;;;;;5096936;28;20059;-80
2024/04/05 09:49:11;;;;;;;3.65;0.75;;;17.20;99.90;;;;;;5078524;28;20490;-80
2024/04/05 09:51:44;;;;;;;2.45;0.60;;;17.20;99.90;;;;;;5079238;28;20024;-80
2024/04/05 09:54:15;;;;;;;1.88;0.70;;;17.40;99.90;;;;;;5096436;28;20024;-80
2024/04/05 09:56:45;;;;;;;3.47;0.60;;;17.50;99.90;;;;;;5079209;28;20080;-79
2024/04/05 09:59:23;;;;;;;3.17;0.88;;;17.60;99.90;;;;;;5077884;28;20276;-79
2024/04/05 10:01:51;;;;;;;1.65;0.50;;;17.90;99.90;;;;;;5078800;28;20031;-79
2024/04/05 10:04:18;;;;;;;1.00;0.63;;;18.10;99.90;;;;;;5078066;28;20395;-80
2024/04/05 10:06:45;;;;;;;1.77;0.60;;;18.30;99.90;;;;;;5078251;28;20476;-80
2024/04/05 10:09:26;;;;;;;2.45;0.60;;;18.50;99.90;;;;;;5077896;28;20182;-80
2024/04/05 10:11:51;;;;;;;1.48;0.57;;;18.70;99.90;;;;;;5077598;28;20016;-80
2024/04/05 10:14:21;;;;;;;3.67;0.80;;;18.80;99.90;;;;;;5077459;28;20043;-80
2024/04/05 10:16:47;;;;;;;1.13;0.63;;;19.10;99.90;;;;;;5078391;28;20050;-80
2024/04/05 10:19:13;;;;;;;6.25;1.15;;;19.20;99.90;;;;;;5077665;28;20092;-80
2024/04/05 10:21:39;;;;;;;2.78;0.90;;;19.20;99.90;;;;;;5077891;28;20054;-80
2024/04/05 10:24:08;;;;;;;1.88;0.70;;;19.40;99.90;;;;;;5077810;28;20067;-80
2024/04/05 10:26:34;;;;;;;2.97;0.57;;;19.60;99.90;;;;;;5077949;28;20019;-80
2024/04/05 10:29:04;;;;;;;3.15;0.60;;;19.80;99.90;;;;;;5077695;28;20035;-80
2024/04/05 10:31:38;;;;;;;3.53;0.77;;;20.00;99.90;;;;;;5077425;28;20122;-80
2024/04/05 10:34:03;;;;;;;3.30;0.68;;;20.10;99.90;;;;;;5078038;28;20027;-80
2024/04/05 10:36:36;;;;;;;2.72;0.68;;;20.10;99.90;;;;;;5095225;28;20369;-80
2024/04/05 10:39:14;;;;;;;1.33;0.60;;;20.20;99.90;;;;;;5095607;28;20020;-80
2024/04/05 10:41:43;;;;;;;2.47;0.50;;;20.30;99.90;;;;;;5077910;28;20047;-79
2024/04/05 10:44:09;;;;;;;2.80;0.70;;;20.40;99.90;;;;;;5094676;28;20024;-80
2024/04/05 10:46:37;;;;;;;2.60;0.50;;;20.40;99.50;;;;;;5077742;28;20035;-80
2024/04/05 10:49:02;;;;;;;3.20;0.52;;;20.50;98.70;;;;;;5077479;28;20035;-80
2024/04/05 10:51:28;;;;;;;1.55;0.90;;;20.50;98.20;;;;;;5076469;28;20024;-75
2024/04/05 10:53:54;;;;;;;1.30;0.65;;;20.60;98.60;;;;;;5068423;28;20028;-76
2024/04/05 10:56:20;;;;;;;0.82;0.57;;;20.60;97.60;;;;;;5059909;28;20032;-77
2024/04/05 10:58:46;;;;;;;5.57;0.60;;;20.60;98.50;;;;;;5055938;28;20095;-76
2024/04/05 11:01:17;;;;;;;1.60;0.50;;;20.70;97.90;;;;;;5061475;28;20028;-78
2024/04/05 11:03:42;;;;;;;1.88;0.60;;;20.70;98.10;;;;;;5094370;28;20074;-79
2024/04/05 11:06:08;;;;;;;4.32;0.50;;;20.80;97.60;;;;;;5076130;28;20024;-83
2024/04/05 11:08:34;;;;;;;1.77;0.38;;;20.90;97.00;;;;;;5094620;28;20532;-79
2024/04/05 11:11:08;;;;;;;1.85;0.50;;;20.90;95.80;;;;;;5076941;28;20024;-79
2024/04/05 11:13:33;;;;;;;2.38;0.43;;;21.10;95.10;;;;;;5056946;28;20357;-80
2024/04/05 11:16:02;;;;;;;1.42;0.38;;;21.30;95.70;;;;;;5064602;28;20267;-80
2024/04/05 11:18:36;;;;;;;0.75;0.40;;;21.40;95.40;;;;;;5055987;28;20183;-80
2024/04/05 11:21:02;;;;;;;2.22;0.60;;;21.40;95.00;;;;;;5056880;28;20028;-80
2024/04/05 11:23:28;;;;;;;1.80;0.43;;;21.30;94.10;;;;;;5055883;28;20297;-80
2024/04/05 11:25:55;;;;;;;0.63;0.35;;;21.20;94.80;;;;;;5056371;28;20025;-79
2024/04/05 11:28:24;;;;;;;1.17;0.40;;;21.20;93.90;;;;;;5055698;28;20025;-79
2024/04/05 11:30:54;;;;;;;1.95;0.50;;;21.20;93.20;;;;;;5086295;28;20036;-79
2024/04/05 11:33:20;;;;;;;1.63;0.60;;;21.10;92.40;;;;;;5094393;28;20023;-80
2024/04/05 11:35:46;;;;;;;1.42;0.40;;;21.20;93.10;;;;;;5076541;28;20111;-78
2024/04/05 11:38:12;;;;;;;0.40;0.30;;;21.10;93.20;;;;;;5075948;28;20020;-84
2024/04/05 11:40:38;;;;;;;1.70;0.50;;;21.10;93.20;;;;;;5076690;28;20461;-80
2024/04/05 11:43:08;;;;;;;1.77;0.40;;;21.00;92.70;;;;;;5076685;28;20035;-79
2024/04/05 11:45:34;;;;;;;5.13;0.52;;;21.00;93.00;;;;;;5075744;28;20100;-80
2024/04/05 11:48:00;;;;;;;1.55;0.50;;;21.00;93.50;;;;;;5076570;28;20055;-83
2024/04/05 11:50:26;;;;;;;1.85;0.60;;;21.10;93.10;;;;;;5075957;28;20028;-81
2024/04/05 11:52:52;;;;;;;1.38;0.60;;;21.10;92.20;;;;;;5076296;28;20521;-80
2024/04/05 11:55:18;;;;;;;6.70;0.55;;;21.20;92.50;;;;;;5076183;28;20024;-77
2024/04/05 11:57:43;;;;;;;1.85;0.50;;;21.20;92.30;;;;;;5076640;28;20346;-83
2024/04/05 12:00:13;;;;;;;1.60;0.40;;;21.20;92.20;;;;;;5076187;28;20028;-85
2024/04/05 12:02:39;;;;;;;1.45;0.65;;;21.20;92.10;;;;;;5093584;28;20103;-79
2024/04/05 12:05:07;;;;;;;0.70;0.50;;;21.20;92.20;;;;;;5076175;28;20027;-81
2024/04/05 12:07:33;;;;;;;1.38;0.40;;;21.20;92.00;;;;;;5075391;28;20021;-77
2024/04/05 12:09:59;;;;;;;1.45;0.40;;;21.20;92.50;;;;;;5075303;28;20069;-78
2024/04/05 12:12:26;;;;;;;1.75;0.40;;;21.30;92.20;;;;;;5093227;28;20386;-79
2024/04/05 12:14:51;;;;;;;3.38;0.60;;;21.30;92.30;;;;;;5058592;28;20032;-77
2024/04/05 12:17:17;;;;;;;1.38;0.40;;;21.30;91.90;;;;;;5055438;28;20021;-78
2024/04/05 12:19:42;;;;;;;1.90;0.50;;;21.30;92.50;;;;;;5073453;28;20032;-78
2024/04/05 12:22:08;;;;;;;1.50;0.50;;;21.40;92.40;;;;;;5056196;28;20020;-82
2024/04/05 12:24:34;;;;;;;3.05;0.60;;;21.40;92.10;;;;;;5055707;28;20523;-80
2024/04/05 12:27:02;;;;;;;5.57;0.60;;;21.40;92.00;;;;;;5056282;28;20074;-83
2024/04/05 12:29:28;;;;;;;2.20;0.60;;;21.50;92.40;;;;;;5063647;28;20461;-81
2024/04/05 12:31:54;;;;;;;1.80;0.50;;;21.60;92.40;;;;;;5076409;28;20024;-83
2024/04/05 12:34:20;;;;;;;4.63;0.70;;;21.60;92.10;;;;;;5076893;28;20479;-83
2024/04/05 12:36:45;;;;;;;1.85;0.70;;;21.60;92.00;;;;;;5080317;28;20020;-82
2024/04/05 12:39:24;;;;;;;2.08;0.65;;;21.60;92.60;;;;;;5077014;28;20090;-85
2024/04/05 12:41:51;;;;;;;1.65;0.40;;;21.80;92.60;;;;;;5073471;28;20082;-82